createdAt,value
2022-11-24T00:00:43.764Z,939.6
2022-11-24T00:01:45.590Z,939.5
2022-11-24T00:02:47.762Z,939.6
2022-11-24T00:03:49.821Z,939.7
2022-11-24T00:04:51.362Z,939.6
2022-11-24T00:05:53.122Z,939.6
2022-11-24T00:06:54.715Z,939.6
2022-11-24T00:07:56.565Z,939.6
2022-11-24T00:08:58.234Z,939.6
2022-11-24T00:09:59.868Z,939.6
2022-11-24T00:11:01.590Z,939.6
2022-11-24T00:12:03.160Z,939.6
2022-11-24T00:13:04.679Z,939.6
2022-11-24T00:14:06.240Z,939.6
2022-11-24T00:15:07.806Z,939.6
2022-11-24T00:16:09.460Z,939.6
2022-11-24T00:17:11.153Z,939.7
2022-11-24T00:18:12.866Z,939.7
2022-11-24T00:19:20.311Z,939.7
2022-11-24T00:20:21.856Z,939.7
2022-11-24T00:21:23.445Z,939.7
2022-11-24T00:22:25.006Z,939.7
2022-11-24T00:23:26.569Z,939.7
2022-11-24T00:24:28.114Z,939.7
2022-11-24T00:25:29.689Z,939.7
2022-11-24T00:26:31.354Z,939.7
2022-11-24T00:27:32.907Z,939.7
2022-11-24T00:28:34.526Z,939.8
2022-11-24T00:29:36.074Z,939.8
2022-11-24T00:30:37.896Z,939.8
2022-11-24T00:31:39.608Z,939.8
2022-11-24T00:32:41.202Z,939.8
2022-11-24T00:33:42.776Z,939.9
2022-11-24T00:34:44.334Z,939.8
2022-11-24T00:35:45.903Z,939.8
2022-11-24T00:36:47.458Z,939.9
2022-11-24T00:37:49.010Z,939.8
2022-11-24T00:38:50.653Z,939.8
2022-11-24T00:39:52.200Z,939.8
2022-11-24T00:40:53.782Z,939.8
2022-11-24T00:41:55.425Z,939.8
2022-11-24T00:42:57.042Z,939.8
2022-11-24T00:43:58.588Z,939.8
2022-11-24T00:45:00.139Z,939.8
2022-11-24T00:46:04.104Z,939.8
2022-11-24T00:47:06.905Z,939.9
2022-11-24T00:48:08.802Z,939.9
2022-11-24T00:49:10.353Z,939.9
2022-11-24T00:50:11.906Z,939.9
2022-11-24T00:51:13.463Z,939.9
2022-11-24T00:52:15.083Z,939.9
2022-11-24T00:53:16.647Z,939.9
2022-11-24T00:54:18.202Z,939.9
2022-11-24T00:55:19.823Z,939.9
2022-11-24T00:56:21.402Z,939.9
2022-11-24T00:57:22.972Z,939.9
2022-11-24T00:58:24.574Z,939.9
2022-11-24T00:59:26.112Z,939.9
2022-11-24T01:00:27.691Z,939.9
2022-11-24T01:01:29.781Z,939.9
2022-11-24T01:02:31.788Z,939.9
2022-11-24T01:03:33.575Z,939.9
2022-11-24T01:04:36.480Z,939.9
2022-11-24T01:05:38.567Z,939.9
2022-11-24T01:06:40.129Z,939.9
2022-11-24T01:07:44.523Z,939.9
2022-11-24T01:08:46.409Z,939.9
2022-11-24T01:09:47.961Z,939.9
2022-11-24T01:10:49.556Z,939.9
2022-11-24T01:11:51.141Z,939.9
2022-11-24T01:12:52.799Z,940
2022-11-24T01:13:54.399Z,940
2022-11-24T01:14:55.952Z,939.9
2022-11-24T01:15:57.592Z,940
2022-11-24T01:16:59.239Z,939.9
2022-11-24T01:18:00.806Z,939.9
2022-11-24T01:19:02.344Z,939.9
2022-11-24T01:20:04.083Z,939.9
2022-11-24T01:21:10.839Z,939.9
2022-11-24T01:22:12.462Z,940
2022-11-24T01:23:14.031Z,939.9
2022-11-24T01:24:15.570Z,939.9
2022-11-24T01:25:17.094Z,939.9
2022-11-24T01:26:18.762Z,939.9
2022-11-24T01:27:20.369Z,939.9
2022-11-24T01:28:22.031Z,939.9
2022-11-24T01:29:23.574Z,939.9
2022-11-24T01:30:25.123Z,939.9
2022-11-24T01:31:27.078Z,939.9
2022-11-24T01:32:28.855Z,939.8
2022-11-24T01:33:30.401Z,939.8
2022-11-24T01:34:33.253Z,939.8
2022-11-24T01:35:35.482Z,939.8
2022-11-24T01:36:37.090Z,939.7
2022-11-24T01:37:38.632Z,939.7
2022-11-24T01:38:40.224Z,939.8
2022-11-24T01:39:41.814Z,939.8
2022-11-24T01:40:43.386Z,939.9
2022-11-24T01:41:44.912Z,939.8
2022-11-24T01:42:46.493Z,939.8
2022-11-24T01:43:48.123Z,939.8
2022-11-24T01:44:49.708Z,939.8
2022-11-24T01:45:51.474Z,939.8
2022-11-24T01:46:53.056Z,939.8
2022-11-24T01:47:54.661Z,939.9
2022-11-24T01:48:56.693Z,939.9
2022-11-24T01:49:58.244Z,939.9
2022-11-24T01:50:59.787Z,939.9
2022-11-24T01:52:01.339Z,940
2022-11-24T01:53:02.956Z,939.9
2022-11-24T01:54:04.550Z,939.9
2022-11-24T01:55:06.099Z,940
2022-11-24T01:56:07.653Z,939.9
2022-11-24T01:57:09.243Z,939.9
2022-11-24T01:58:10.925Z,939.9
2022-11-24T01:59:12.664Z,939.9
2022-11-24T02:00:14.221Z,939.9
2022-11-24T02:01:15.904Z,940
2022-11-24T02:02:18.035Z,940
2022-11-24T02:03:19.687Z,940
2022-11-24T02:04:21.248Z,939.9
2022-11-24T02:05:22.873Z,939.9
2022-11-24T02:06:24.464Z,939.9
2022-11-24T02:07:26.392Z,939.8
2022-11-24T02:08:28.010Z,939.9
2022-11-24T02:09:29.623Z,939.9
2022-11-24T02:10:31.316Z,939.9
2022-11-24T02:11:32.966Z,939.9
2022-11-24T02:12:34.513Z,939.9
2022-11-24T02:13:36.091Z,939.9
2022-11-24T02:14:37.844Z,939.9
2022-11-24T02:15:39.647Z,939.9
2022-11-24T02:16:41.399Z,939.9
2022-11-24T02:17:43.043Z,939.9
2022-11-24T02:18:44.770Z,939.9
2022-11-24T02:19:46.364Z,939.9
2022-11-24T02:20:47.917Z,939.9
2022-11-24T02:21:49.466Z,939.9
2022-11-24T02:22:51.010Z,939.9
2022-11-24T02:23:52.598Z,940
2022-11-24T02:24:54.148Z,940
2022-11-24T02:25:55.670Z,940
2022-11-24T02:26:57.215Z,940
2022-11-24T02:27:58.839Z,940
2022-11-24T02:29:00.497Z,940
2022-11-24T02:30:02.260Z,940
2022-11-24T02:31:04.028Z,939.9
2022-11-24T02:32:05.827Z,940
2022-11-24T02:33:07.602Z,940
2022-11-24T02:34:09.361Z,940
2022-11-24T02:35:11.131Z,939.9
2022-11-24T02:36:12.721Z,940
2022-11-24T02:37:14.276Z,939.9
2022-11-24T02:38:15.849Z,940
2022-11-24T02:39:17.598Z,939.9
2022-11-24T02:40:19.378Z,940
2022-11-24T02:41:20.937Z,940
2022-11-24T02:42:22.548Z,940
2022-11-24T02:43:24.097Z,940
2022-11-24T02:44:25.723Z,940
2022-11-24T02:45:27.449Z,940
2022-11-24T02:46:29.524Z,940
2022-11-24T02:47:31.275Z,940
2022-11-24T02:48:32.811Z,940
2022-11-24T02:49:34.432Z,940
2022-11-24T02:50:36.285Z,940.1
2022-11-24T02:51:37.829Z,940.1
2022-11-24T02:52:39.442Z,940.1
2022-11-24T02:53:41.074Z,940.1
2022-11-24T02:54:42.631Z,940.1
2022-11-24T02:55:44.200Z,940
2022-11-24T02:56:45.745Z,940
2022-11-24T02:57:47.292Z,940
2022-11-24T02:58:48.889Z,940
2022-11-24T02:59:50.458Z,940
2022-11-24T03:00:52.120Z,940
2022-11-24T03:01:54.219Z,940
2022-11-24T03:02:56.164Z,939.9
2022-11-24T03:03:57.997Z,939.9
2022-11-24T03:04:59.644Z,939.9
2022-11-24T03:06:01.184Z,940
2022-11-24T03:07:02.912Z,940
2022-11-24T03:08:04.458Z,940.1
2022-11-24T03:09:06.003Z,940
2022-11-24T03:10:07.554Z,940
2022-11-24T03:11:09.102Z,940
2022-11-24T03:12:10.746Z,940.1
2022-11-24T03:13:12.388Z,940.1
2022-11-24T03:14:13.976Z,940.1
2022-11-24T03:15:15.568Z,940.1
2022-11-24T03:16:17.474Z,940.1
2022-11-24T03:17:19.244Z,940.1
2022-11-24T03:18:20.803Z,940.1
2022-11-24T03:19:22.363Z,940.1
2022-11-24T03:20:23.909Z,940.1
2022-11-24T03:21:25.485Z,940.1
2022-11-24T03:22:27.110Z,940.1
2022-11-24T03:23:28.727Z,940.1
2022-11-24T03:24:30.332Z,940.1
2022-11-24T03:25:32.114Z,940.2
2022-11-24T03:26:33.722Z,940.2
2022-11-24T03:27:35.369Z,940.2
2022-11-24T03:28:36.887Z,940.2
2022-11-24T03:29:38.450Z,940.2
2022-11-24T03:30:40.051Z,940.2
2022-11-24T03:31:42.445Z,940.2
2022-11-24T03:32:44.147Z,940.3
2022-11-24T03:33:45.695Z,940.2
2022-11-24T03:34:47.339Z,940.3
2022-11-24T03:35:48.895Z,940.3
2022-11-24T03:36:50.449Z,940.2
2022-11-24T03:37:51.998Z,940.3
2022-11-24T03:38:53.547Z,940.3
2022-11-24T03:39:55.148Z,940.3
2022-11-24T03:40:56.694Z,940.3
2022-11-24T03:41:58.249Z,940.3
2022-11-24T03:42:59.795Z,940.4
2022-11-24T03:44:01.342Z,940.4
2022-11-24T03:45:46.825Z,940.4
2022-11-24T03:46:48.958Z,940.4
2022-11-24T03:47:50.796Z,940.4
2022-11-24T03:48:52.319Z,940.4
2022-11-24T03:49:53.933Z,940.4
2022-11-24T03:50:55.496Z,940.4
2022-11-24T03:51:57.309Z,940.4
2022-11-24T03:52:58.923Z,940.5
2022-11-24T03:54:00.467Z,940.5
2022-11-24T03:55:02.058Z,940.5
2022-11-24T03:56:03.602Z,940.5
2022-11-24T03:57:05.176Z,940.5
2022-11-24T03:58:06.785Z,940.5
2022-11-24T03:59:08.340Z,940.5
2022-11-24T04:00:09.924Z,940.6
2022-11-24T04:01:11.522Z,940.6
2022-11-24T04:02:13.690Z,940.6
2022-11-24T04:03:15.713Z,940.6
2022-11-24T04:04:17.243Z,940.6
2022-11-24T04:05:18.792Z,940.6
2022-11-24T04:06:20.333Z,940.7
2022-11-24T04:07:22.202Z,940.7
2022-11-24T04:08:23.912Z,940.7
2022-11-24T04:09:25.480Z,940.7
2022-11-24T04:10:27.043Z,940.8
2022-11-24T04:11:28.608Z,940.7
2022-11-24T04:12:30.159Z,940.7
2022-11-24T04:13:31.762Z,940.7
2022-11-24T04:14:34.863Z,940.7
2022-11-24T04:15:37.134Z,940.6
2022-11-24T04:16:38.693Z,940.6
2022-11-24T04:17:40.417Z,940.7
2022-11-24T04:18:42.229Z,940.7
2022-11-24T04:19:43.778Z,940.7
2022-11-24T04:20:45.364Z,940.7
2022-11-24T04:21:47.239Z,940.8
2022-11-24T04:22:48.864Z,940.7
2022-11-24T04:23:50.460Z,940.8
2022-11-24T04:24:52.017Z,940.8
2022-11-24T04:25:53.583Z,940.8
2022-11-24T04:26:55.161Z,940.8
2022-11-24T04:27:56.704Z,940.8
2022-11-24T04:28:58.289Z,940.8
2022-11-24T04:29:59.839Z,940.9
2022-11-24T04:31:01.762Z,940.9
2022-11-24T04:32:03.565Z,940.9
2022-11-24T04:33:05.211Z,940.9
2022-11-24T04:34:06.783Z,940.9
2022-11-24T04:35:08.689Z,940.9
2022-11-24T04:36:10.245Z,940.9
2022-11-24T04:37:11.877Z,940.9
2022-11-24T04:39:28.796Z,941
2022-11-24T04:40:30.588Z,941
2022-11-24T04:41:32.170Z,940.9
2022-11-24T04:42:33.718Z,940.9
2022-11-24T04:43:41.241Z,940.9
2022-11-24T04:44:42.991Z,941
2022-11-24T04:45:44.677Z,941
2022-11-24T04:46:46.323Z,940.9
2022-11-24T04:47:48.014Z,941
2022-11-24T04:48:49.823Z,941
2022-11-24T04:49:51.383Z,941
2022-11-24T04:50:53.431Z,941
2022-11-24T04:51:55.054Z,941
2022-11-24T04:52:56.694Z,941
2022-11-24T04:53:58.252Z,941
2022-11-24T04:54:59.846Z,941.1
2022-11-24T04:56:01.383Z,941.1
2022-11-24T04:57:02.966Z,941.1
2022-11-24T04:58:04.527Z,941.1
2022-11-24T04:59:09.092Z,941.1
2022-11-24T05:00:10.699Z,941.1
2022-11-24T05:01:12.529Z,941.1
2022-11-24T05:02:14.468Z,941.1
2022-11-24T05:03:16.044Z,941.1
2022-11-24T05:04:18.179Z,941.1
2022-11-24T05:05:19.821Z,941.1
2022-11-24T05:06:21.443Z,941.1
2022-11-24T05:07:23.188Z,941.1
2022-11-24T05:08:25.028Z,941.1
2022-11-24T05:09:59.877Z,941.2
2022-11-24T05:11:01.594Z,941.2
2022-11-24T05:12:03.161Z,941.2
2022-11-24T05:13:04.764Z,941.2
2022-11-24T05:14:06.328Z,941.2
2022-11-24T05:15:07.950Z,941.2
2022-11-24T05:16:09.792Z,941.2
2022-11-24T05:17:11.447Z,941.2
2022-11-24T05:18:13.050Z,941.2
2022-11-24T05:19:14.706Z,941.2
2022-11-24T05:20:16.367Z,941.2
2022-11-24T05:21:17.989Z,941.3
2022-11-24T05:22:19.574Z,941.3
2022-11-24T05:23:21.158Z,941.3
2022-11-24T05:24:22.830Z,941.3
2022-11-24T05:25:24.428Z,941.3
2022-11-24T05:26:26.003Z,941.3
2022-11-24T05:27:27.585Z,941.3
2022-11-24T05:28:29.205Z,941.3
2022-11-24T05:29:30.853Z,941.3
2022-11-24T05:30:32.460Z,941.3
2022-11-24T05:31:34.421Z,941.2
2022-11-24T05:32:36.057Z,941.2
2022-11-24T05:33:37.648Z,941.3
2022-11-24T05:34:39.334Z,941.2
2022-11-24T05:35:41.011Z,941.2
2022-11-24T05:36:42.551Z,941.2
2022-11-24T05:37:44.137Z,941.3
2022-11-24T05:38:45.765Z,941.2
2022-11-24T05:39:47.316Z,941.3
2022-11-24T05:40:48.903Z,941.3
2022-11-24T05:41:50.538Z,941.3
2022-11-24T05:42:52.112Z,941.4
2022-11-24T05:43:53.670Z,941.4
2022-11-24T05:44:55.278Z,941.4
2022-11-24T05:45:56.863Z,941.4
2022-11-24T05:46:58.686Z,941.4
2022-11-24T05:48:00.652Z,941.4
2022-11-24T05:49:02.220Z,941.4
2022-11-24T05:50:03.935Z,941.4
2022-11-24T05:51:09.952Z,941.4
2022-11-24T05:52:11.667Z,941.4
2022-11-24T05:53:13.247Z,941.4
2022-11-24T05:54:14.838Z,941.4
2022-11-24T05:55:16.433Z,941.4
2022-11-24T05:56:18.025Z,941.4
2022-11-24T05:57:19.863Z,941.4
2022-11-24T05:58:21.440Z,941.4
2022-11-24T05:59:23.040Z,941.4
2022-11-24T06:00:24.632Z,941.4
2022-11-24T06:01:26.271Z,941.4
2022-11-24T06:02:28.431Z,941.4
2022-11-24T06:03:30.368Z,941.4
2022-11-24T06:04:33.121Z,941.5
2022-11-24T06:05:35.361Z,941.5
2022-11-24T06:06:37.064Z,941.5
2022-11-24T06:07:39.113Z,941.5
2022-11-24T06:08:41.066Z,941.5
2022-11-24T06:09:42.646Z,941.5
2022-11-24T06:10:44.246Z,941.5
2022-11-24T06:11:45.859Z,941.5
2022-11-24T06:12:47.449Z,941.5
2022-11-24T06:13:49.708Z,941.6
2022-11-24T06:14:51.651Z,941.6
2022-11-24T06:15:53.271Z,941.6
2022-11-24T06:16:55.366Z,941.6
2022-11-24T06:17:57.259Z,941.6
2022-11-24T06:18:58.928Z,941.5
2022-11-24T06:20:00.570Z,941.5
2022-11-24T06:21:12.438Z,941.6
2022-11-24T06:22:14.153Z,941.6
2022-11-24T06:23:15.761Z,941.6
2022-11-24T06:24:17.403Z,941.6
2022-11-24T06:25:18.966Z,941.6
2022-11-24T06:26:20.601Z,941.6
2022-11-24T06:27:22.225Z,941.6
2022-11-24T06:28:23.802Z,941.6
2022-11-24T06:29:25.421Z,941.7
2022-11-24T06:30:27.056Z,941.7
2022-11-24T06:31:28.938Z,941.7
2022-11-24T06:32:30.693Z,941.7
2022-11-24T06:33:32.293Z,941.8
2022-11-24T06:34:34.781Z,941.8
2022-11-24T06:35:36.778Z,941.8
2022-11-24T06:36:38.403Z,941.8
2022-11-24T06:37:40.226Z,941.8
2022-11-24T06:38:41.797Z,941.8
2022-11-24T06:39:43.378Z,941.9
2022-11-24T06:40:44.953Z,941.9
2022-11-24T06:41:49.237Z,941.9
2022-11-24T06:42:50.804Z,941.9
2022-11-24T06:43:52.456Z,942
2022-11-24T06:44:54.043Z,942
2022-11-24T06:45:55.901Z,942
2022-11-24T06:46:57.699Z,942
2022-11-24T06:47:59.314Z,942
2022-11-24T06:49:00.961Z,942
2022-11-24T06:50:02.572Z,942.1
2022-11-24T06:51:04.212Z,942.1
2022-11-24T06:52:05.826Z,942.1
2022-11-24T06:53:07.481Z,942.1
2022-11-24T06:54:09.094Z,942.1
2022-11-24T06:55:10.680Z,942.2
2022-11-24T06:56:17.357Z,942.2
2022-11-24T06:57:18.965Z,942.2
2022-11-24T06:58:20.539Z,942.2
2022-11-24T06:59:25.174Z,942.2
2022-11-24T07:00:26.748Z,942.2
2022-11-24T07:01:28.505Z,942.2
2022-11-24T07:02:30.370Z,942.2
2022-11-24T07:03:32.256Z,942.3
2022-11-24T07:04:35.265Z,942.3
2022-11-24T07:05:37.344Z,942.3
2022-11-24T07:06:38.895Z,942.3
2022-11-24T07:07:43.686Z,942.3
2022-11-24T07:08:45.617Z,942.3
2022-11-24T07:09:47.229Z,942.3
2022-11-24T07:10:48.813Z,942.3
2022-11-24T07:11:50.393Z,942.3
2022-11-24T07:12:52.448Z,942.4
2022-11-24T07:14:00.511Z,942.4
2022-11-24T07:15:02.165Z,942.4
2022-11-24T07:16:03.949Z,942.4
2022-11-24T07:17:05.627Z,942.4
2022-11-24T07:18:07.256Z,942.4
2022-11-24T07:19:08.843Z,942.4
2022-11-24T07:20:10.467Z,942.5
2022-11-24T07:21:12.048Z,942.5
2022-11-24T07:22:13.690Z,942.5
2022-11-24T07:23:15.327Z,942.5
2022-11-24T07:24:17.048Z,942.5
2022-11-24T07:25:18.677Z,942.5
2022-11-24T07:26:20.321Z,942.5
2022-11-24T07:27:21.887Z,942.5
2022-11-24T07:28:23.503Z,942.5
2022-11-24T07:29:25.097Z,942.5
2022-11-24T07:30:26.746Z,942.5
2022-11-24T07:31:28.619Z,942.5
2022-11-24T07:32:30.267Z,942.5
2022-11-24T07:33:31.863Z,942.6
2022-11-24T07:34:34.646Z,942.6
2022-11-24T07:35:36.722Z,942.7
2022-11-24T07:36:38.327Z,942.7
2022-11-24T07:37:39.900Z,942.6
2022-11-24T07:38:41.608Z,942.7
2022-11-24T07:39:43.398Z,942.7
2022-11-24T07:40:45.080Z,942.7
2022-11-24T07:41:46.611Z,942.7
2022-11-24T07:42:48.206Z,942.7
2022-11-24T07:43:49.878Z,942.8
2022-11-24T07:44:51.469Z,942.8
2022-11-24T07:45:53.473Z,942.7
2022-11-24T07:46:55.418Z,942.7
2022-11-24T07:47:57.050Z,942.7
2022-11-24T07:48:58.621Z,942.7
2022-11-24T07:50:00.296Z,942.7
2022-11-24T07:51:01.900Z,942.8
2022-11-24T07:52:03.494Z,942.7
2022-11-24T07:53:05.266Z,942.7
2022-11-24T07:54:06.861Z,942.8
2022-11-24T07:55:08.550Z,942.8
2022-11-24T07:56:10.215Z,942.8
2022-11-24T07:57:11.826Z,942.8
2022-11-24T07:58:13.377Z,942.9
2022-11-24T07:59:15.330Z,942.9
2022-11-24T08:00:17.033Z,942.9
2022-11-24T08:01:19.056Z,942.9
2022-11-24T08:02:21.435Z,943
2022-11-24T08:03:23.357Z,943
2022-11-24T08:04:27.910Z,943
2022-11-24T08:05:29.501Z,943
2022-11-24T08:06:47.438Z,943.1
2022-11-24T08:07:49.553Z,943
2022-11-24T08:08:54.010Z,943.1
2022-11-24T08:09:55.665Z,943.1
2022-11-24T08:10:57.379Z,943.1
2022-11-24T08:11:59.022Z,943.1
2022-11-24T08:13:00.682Z,943.1
2022-11-24T08:14:02.327Z,943.1
2022-11-24T08:15:11.757Z,943.1
2022-11-24T08:16:13.833Z,943.1
2022-11-24T08:17:15.665Z,943.1
2022-11-24T08:18:18.170Z,943.2
2022-11-24T08:19:19.810Z,943.2
2022-11-24T08:20:21.419Z,943.2
2022-11-24T08:21:22.983Z,943.2
2022-11-24T08:22:25.113Z,943.3
2022-11-24T08:23:26.685Z,943.3
2022-11-24T08:24:28.301Z,943.3
2022-11-24T08:25:29.899Z,943.3
2022-11-24T08:26:31.580Z,943.2
2022-11-24T08:27:33.215Z,943.3
2022-11-24T08:28:34.793Z,943.3
2022-11-24T08:29:36.449Z,943.3
2022-11-24T08:30:38.161Z,943.4
2022-11-24T08:31:40.065Z,943.4
2022-11-24T08:32:41.792Z,943.4
2022-11-24T08:33:43.434Z,943.4
2022-11-24T08:34:45.053Z,943.4
2022-11-24T08:35:46.640Z,943.4
2022-11-24T08:36:48.225Z,943.4
2022-11-24T08:37:49.831Z,943.5
2022-11-24T08:38:51.424Z,943.4
2022-11-24T08:39:53.189Z,943.5
2022-11-24T08:40:54.813Z,943.5
2022-11-24T08:41:56.491Z,943.5
2022-11-24T08:42:58.084Z,943.5
2022-11-24T08:43:59.848Z,943.5
2022-11-24T08:45:23.886Z,943.5
2022-11-24T08:46:27.882Z,943.6
2022-11-24T08:47:29.587Z,943.6
2022-11-24T08:48:31.156Z,943.6
2022-11-24T08:49:32.798Z,943.6
2022-11-24T08:50:34.394Z,943.6
2022-11-24T08:51:36.154Z,943.6
2022-11-24T08:52:37.767Z,943.6
2022-11-24T08:53:39.347Z,943.7
2022-11-24T08:54:40.983Z,943.6
2022-11-24T08:55:42.586Z,943.6
2022-11-24T08:56:44.253Z,943.7
2022-11-24T08:57:46.011Z,943.6
2022-11-24T08:58:47.768Z,943.7
2022-11-24T08:59:49.498Z,943.7
2022-11-24T09:00:51.165Z,943.7
2022-11-24T09:01:53.056Z,943.7
2022-11-24T09:02:54.711Z,943.7
2022-11-24T09:03:56.886Z,943.7
2022-11-24T09:04:58.680Z,943.7
2022-11-24T09:06:00.278Z,943.7
2022-11-24T09:07:01.886Z,943.7
2022-11-24T09:08:03.472Z,943.8
2022-11-24T09:09:05.114Z,943.8
2022-11-24T09:10:06.708Z,943.8
2022-11-24T09:11:08.338Z,943.9
2022-11-24T09:12:15.169Z,943.9
2022-11-24T09:13:16.908Z,943.8
2022-11-24T09:14:18.525Z,943.8
2022-11-24T09:15:20.107Z,943.8
2022-11-24T09:16:22.121Z,943.8
2022-11-24T09:17:23.805Z,943.8
2022-11-24T09:18:30.910Z,943.8
2022-11-24T09:19:33.687Z,943.9
2022-11-24T09:20:36.279Z,943.8
2022-11-24T09:21:37.962Z,943.8
2022-11-24T09:22:39.604Z,943.8
2022-11-24T09:23:41.205Z,943.8
2022-11-24T09:24:42.837Z,943.8
2022-11-24T09:25:44.424Z,943.8
2022-11-24T09:26:48.369Z,943.8
2022-11-24T09:27:49.988Z,943.8
2022-11-24T09:28:51.697Z,943.8
2022-11-24T09:29:53.282Z,943.9
2022-11-24T09:30:55.100Z,943.8
2022-11-24T09:32:07.050Z,943.8
2022-11-24T09:33:08.950Z,943.9
2022-11-24T09:34:10.520Z,943.9
2022-11-24T09:35:12.158Z,943.9
2022-11-24T09:36:13.788Z,943.8
2022-11-24T09:37:15.378Z,943.9
2022-11-24T09:38:17.036Z,943.9
2022-11-24T09:39:18.650Z,943.9
2022-11-24T09:40:20.282Z,943.9
2022-11-24T09:41:21.904Z,943.9
2022-11-24T09:42:23.505Z,943.9
2022-11-24T09:43:25.109Z,943.9
2022-11-24T09:44:26.780Z,943.9
2022-11-24T09:46:06.780Z,943.9
2022-11-24T09:47:08.944Z,943.9
2022-11-24T09:48:10.676Z,943.9
2022-11-24T09:49:14.907Z,943.9
2022-11-24T09:50:16.544Z,943.9
2022-11-24T09:51:18.253Z,943.9
2022-11-24T09:52:19.874Z,943.9
2022-11-24T09:53:21.526Z,943.9
2022-11-24T09:54:23.133Z,943.9
2022-11-24T09:55:24.736Z,944
2022-11-24T09:56:26.344Z,944
2022-11-24T09:57:37.871Z,944
2022-11-24T09:58:39.585Z,944
2022-11-24T09:59:41.288Z,944
2022-11-24T10:00:42.844Z,944
2022-11-24T10:01:44.784Z,944
2022-11-24T10:02:46.753Z,944
2022-11-24T10:03:48.359Z,944.1
2022-11-24T10:04:50.168Z,944.1
2022-11-24T10:05:51.864Z,944.1
2022-11-24T10:06:53.435Z,944.1
2022-11-24T10:07:55.361Z,944.1
2022-11-24T10:08:57.156Z,944
2022-11-24T10:09:58.741Z,944.1
2022-11-24T10:11:00.386Z,944.1
2022-11-24T10:12:01.998Z,944.1
2022-11-24T10:13:03.646Z,944.1
2022-11-24T10:14:05.344Z,944.1
2022-11-24T10:15:07.053Z,944.1
2022-11-24T10:16:08.886Z,944.2
2022-11-24T10:17:10.662Z,944.1
2022-11-24T10:18:17.584Z,944.1
2022-11-24T10:19:19.314Z,944.1
2022-11-24T10:20:20.954Z,944.1
2022-11-24T10:21:22.558Z,944.1
2022-11-24T10:22:24.192Z,944.1
2022-11-24T10:23:25.827Z,944.1
2022-11-24T10:24:27.540Z,944.1
2022-11-24T10:25:29.131Z,944
2022-11-24T10:26:30.804Z,944.1
2022-11-24T10:27:32.532Z,944.1
2022-11-24T10:28:34.178Z,944.1
2022-11-24T10:29:36.939Z,944.1
2022-11-24T10:30:39.731Z,944.1
2022-11-24T10:31:41.420Z,944.1
2022-11-24T10:32:43.011Z,944.1
2022-11-24T10:33:44.565Z,944.1
2022-11-24T10:34:46.212Z,944.1
2022-11-24T10:35:47.825Z,944.1
2022-11-24T10:36:49.606Z,944.2
2022-11-24T10:37:51.242Z,944.2
2022-11-24T10:38:53.053Z,944.2
2022-11-24T10:40:00.898Z,944.2
2022-11-24T10:41:02.523Z,944.1
2022-11-24T10:42:04.227Z,944.1
2022-11-24T10:43:05.852Z,944.2
2022-11-24T10:44:07.439Z,944.2
2022-11-24T10:45:10.225Z,944.2
2022-11-24T10:46:12.191Z,944.1
2022-11-24T10:47:13.992Z,944.1
2022-11-24T10:48:15.607Z,944.2
2022-11-24T10:49:17.656Z,944.2
2022-11-24T10:50:19.318Z,944.1
2022-11-24T10:51:21.007Z,944.2
2022-11-24T10:52:22.783Z,944.1
2022-11-24T10:53:24.461Z,944.2
2022-11-24T10:54:26.093Z,944.2
2022-11-24T10:55:27.692Z,944.2
2022-11-24T10:56:29.404Z,944.1
2022-11-24T10:57:31.053Z,944.1
2022-11-24T10:58:38.769Z,944.1
2022-11-24T10:59:40.423Z,944.2
2022-11-24T11:00:42.026Z,944.1
2022-11-24T11:01:43.938Z,944.2
2022-11-24T11:02:46.156Z,944.1
2022-11-24T11:03:47.893Z,944.1
2022-11-24T11:04:49.565Z,944.1
2022-11-24T11:05:51.241Z,944
2022-11-24T11:06:55.507Z,944.1
2022-11-24T11:08:05.922Z,944.1
2022-11-24T11:09:07.861Z,944
2022-11-24T11:10:09.518Z,944.1
2022-11-24T11:11:11.150Z,944.1
2022-11-24T11:12:45.323Z,944.1
2022-11-24T11:13:47.384Z,944.1
2022-11-24T11:14:48.942Z,944.1
2022-11-24T11:15:50.986Z,944.1
2022-11-24T11:16:52.991Z,944.2
2022-11-24T11:17:54.621Z,944.2
2022-11-24T11:18:56.305Z,944.2
2022-11-24T11:20:03.458Z,944.1
2022-11-24T11:21:06.079Z,944.2
2022-11-24T11:22:07.750Z,944.1
2022-11-24T11:23:09.407Z,944.2
2022-11-24T11:24:11.072Z,944.2
2022-11-24T11:25:12.716Z,944.2
2022-11-24T11:26:14.372Z,944.2
2022-11-24T11:27:15.963Z,944.2
2022-11-24T11:28:19.195Z,944.2
2022-11-24T11:35:18.144Z,944.3
2022-11-24T11:36:19.780Z,944.2
2022-11-24T11:37:21.372Z,944.2
2022-11-24T11:38:22.951Z,944.2
2022-11-24T11:39:24.558Z,944.2
2022-11-24T11:40:26.209Z,944.2
2022-11-24T11:41:27.842Z,944.2
2022-11-24T11:43:03.756Z,944.2
2022-11-24T11:44:05.666Z,944.2
2022-11-24T11:45:07.317Z,944.2
2022-11-24T11:46:09.625Z,944.2
2022-11-24T11:47:11.926Z,944.2
2022-11-24T11:48:13.824Z,944.2
2022-11-24T11:49:15.452Z,944.2
2022-11-24T11:50:17.278Z,944.2
2022-11-24T11:51:25.077Z,944.3
2022-11-24T11:52:26.884Z,944.1
2022-11-24T11:53:28.513Z,944.1
2022-11-24T11:54:33.332Z,944.1
2022-11-24T11:55:35.644Z,944.1
2022-11-24T11:56:37.247Z,944.1
2022-11-24T11:57:38.862Z,944.1
2022-11-24T11:58:40.531Z,944.1
2022-11-24T11:59:42.129Z,944.2
2022-11-24T12:00:43.788Z,944.2
2022-11-24T12:01:45.451Z,944.2
2022-11-24T12:02:54.375Z,944.2
2022-11-24T12:03:56.819Z,944.2
2022-11-24T12:04:58.853Z,944.3
2022-11-24T12:06:00.554Z,944.3
2022-11-24T12:07:02.192Z,944.3
2022-11-24T12:08:17.668Z,944.4
2022-11-24T12:09:23.289Z,944.3
2022-11-24T12:10:24.919Z,944.3
2022-11-24T12:11:27.036Z,944.3
2022-11-24T12:12:28.917Z,944.3
2022-11-24T12:13:30.463Z,944.4
2022-11-24T12:14:32.072Z,944.3
2022-11-24T12:15:33.656Z,944.4
2022-11-24T12:16:35.859Z,944.4
2022-11-24T12:17:37.594Z,944.5
2022-11-24T12:18:59.263Z,944.4
2022-11-24T12:20:01.141Z,944.5
2022-11-24T12:21:02.825Z,944.5
2022-11-24T12:22:04.557Z,944.4
2022-11-24T12:23:06.201Z,944.5
2022-11-24T12:24:07.874Z,944.5
2022-11-24T12:25:09.417Z,944.5
2022-11-24T12:26:11.023Z,944.5
2022-11-24T12:27:16.733Z,944.5
2022-11-24T12:28:24.734Z,944.5
2022-11-24T12:29:26.424Z,944.5
2022-11-24T12:30:28.027Z,944.5
2022-11-24T12:31:29.808Z,944.5
2022-11-24T12:32:31.517Z,944.5
2022-11-24T12:33:33.173Z,944.5
2022-11-24T12:34:34.949Z,944.5
2022-11-24T12:35:36.599Z,944.6
2022-11-24T12:36:38.228Z,944.5
2022-11-24T12:37:39.838Z,944.6
2022-11-24T12:38:41.411Z,944.6
2022-11-24T12:39:43.035Z,944.5
2022-11-24T12:40:47.680Z,944.6
2022-11-24T12:41:49.224Z,944.6
2022-11-24T12:42:50.874Z,944.6
2022-11-24T12:43:52.524Z,944.6
2022-11-24T12:44:54.142Z,944.6
2022-11-24T12:45:55.739Z,944.6
2022-11-24T12:46:57.564Z,944.6
2022-11-24T12:47:59.424Z,944.6
2022-11-24T12:49:01.088Z,944.6
2022-11-24T12:50:02.938Z,944.6
2022-11-24T12:51:04.592Z,944.6
2022-11-24T12:52:06.258Z,944.6
2022-11-24T12:53:07.905Z,944.6
2022-11-24T12:54:09.520Z,944.6
2022-11-24T12:55:11.134Z,944.6
2022-11-24T12:56:12.817Z,944.7
2022-11-24T12:57:14.404Z,944.6
2022-11-24T12:58:15.970Z,944.6
2022-11-24T12:59:17.594Z,944.6
2022-11-24T13:00:19.169Z,944.6
2022-11-24T13:01:21.035Z,944.6
2022-11-24T13:02:23.531Z,944.6
2022-11-24T13:03:25.587Z,944.5
2022-11-24T13:04:27.238Z,944.5
2022-11-24T13:05:28.835Z,944.5
2022-11-24T13:06:30.554Z,944.5
2022-11-24T13:07:32.406Z,944.5
2022-11-24T13:08:34.191Z,944.6
2022-11-24T13:09:35.780Z,944.5
2022-11-24T13:11:07.432Z,944.6
2022-11-24T13:12:09.088Z,944.6
2022-11-24T13:13:10.664Z,944.5
2022-11-24T13:14:12.301Z,944.5
2022-11-24T13:15:46.453Z,944.6
2022-11-24T13:24:16.516Z,944.6
2022-11-24T13:25:18.863Z,944.6
2022-11-24T13:26:23.384Z,944.7
2022-11-24T13:27:25.013Z,944.7
2022-11-24T13:29:24.147Z,944.7
2022-11-24T13:30:27.167Z,944.6
2022-11-24T13:31:29.143Z,944.7
2022-11-24T13:32:31.132Z,944.6
2022-11-24T13:33:32.720Z,944.7
2022-11-24T13:34:35.103Z,944.7
2022-11-24T13:35:37.378Z,944.7
2022-11-24T13:36:38.966Z,944.6
2022-11-24T13:37:40.558Z,944.7
2022-11-24T13:38:42.511Z,944.7
2022-11-24T13:39:51.050Z,944.7
2022-11-24T13:41:29.055Z,944.7
2022-11-24T13:42:44.772Z,944.7
2022-11-24T13:43:48.987Z,944.7
2022-11-24T13:44:50.563Z,944.8